Terminal Aerodrome Forecast
Issued by NWS Corpus Christi, TX

Home | Current Version | Previous Version | Text Only | Print | Product List | Glossary On
Versions: 1 2 3 4 5 6 7 8 9 10 11 12 13 14 15 16 17 18
000
FTUS44 KCRP 290532
TAFVCT
TAF
KVCT 290532Z 2906/3006 09005KT P6SM SCT015
      TEMPO 2907/2910 BKN015
     FM291000 10005KT 5SM BR OVC012
     FM291400 12008G15KT P6SM BKN025 OVC150
     FM292000 13014G18KT P6SM SCT040 BKN250
     FM300300 14012KT P6SM BKN020
      TEMPO 3004/3006 SCT020=

USA.gov is the U.S. government's official web portal to all federal, state and local government web resources and services.